Time;durP1;ratioP1;P1;durP2;ratioP2;P2;SDS_P1;SDS_P2;PMS_P1;PMS_P2;Temp;Humidity;BMP_temperature;BMP_pressure;BME280_temperature;BME280_humidity;BME280_pressure;Samples;Min_cycle;Max_cycle;Signal;HPM_P1;HPM_P2
2023/01/26 00:00:56;;;;;;;22.17;11.97;;;2.90;99.90;;;;;;5057021;28;20483;-60
2023/01/26 00:03:24;;;;;;;18.13;10.18;;;2.80;99.90;;;;;;5058016;28;20880;-61
2023/01/26 00:05:52;;;;;;;17.52;9.98;;;2.80;99.90;;;;;;5066402;28;20465;-60
2023/01/26 00:08:19;;;;;;;16.63;8.98;;;2.80;99.90;;;;;;5077821;28;20439;-60
2023/01/26 00:10:50;;;;;;;20.42;10.07;;;2.80;99.90;;;;;;5077729;28;20526;-60
2023/01/26 00:13:19;;;;;;;19.67;11.73;;;2.70;99.90;;;;;;5077890;28;20723;-60
2023/01/26 00:15:46;;;;;;;19.05;10.25;;;2.50;99.90;;;;;;5076612;28;20797;-60
2023/01/26 00:18:13;;;;;;;19.00;9.80;;;2.50;99.90;;;;;;5077850;28;20879;-60
2023/01/26 00:20:42;;;;;;;16.30;9.02;;;2.40;99.90;;;;;;5068791;28;20528;-60
2023/01/26 00:23:09;;;;;;;16.80;10.00;;;2.30;99.90;;;;;;5055829;28;20508;-60
2023/01/26 00:25:39;;;;;;;18.30;10.27;;;2.20;99.90;;;;;;5056495;28;20528;-60
2023/01/26 00:28:07;;;;;;;19.25;10.32;;;2.30;99.90;;;;;;5056472;28;20421;-60
2023/01/26 00:30:34;;;;;;;17.25;10.65;;;2.50;99.90;;;;;;5055688;28;20526;-60
2023/01/26 00:33:01;;;;;;;17.33;10.32;;;2.50;99.90;;;;;;5056992;28;20522;-60
2023/01/26 00:35:28;;;;;;;18.92;10.38;;;2.50;99.90;;;;;;5059122;28;20457;-60
2023/01/26 00:37:57;;;;;;;16.88;9.98;;;2.70;99.90;;;;;;5064630;28;20521;-60
2023/01/26 00:40:24;;;;;;;19.25;10.45;;;2.80;99.90;;;;;;5066096;28;20485;-59
2023/01/26 00:42:53;;;;;;;20.60;10.93;;;2.90;99.90;;;;;;5061478;28;20871;-60
2023/01/26 00:45:20;;;;;;;20.02;9.65;;;2.90;99.90;;;;;;5070267;28;20516;-60
2023/01/26 00:47:47;;;;;;;15.75;9.20;;;2.60;99.90;;;;;;5071072;28;20421;-60
2023/01/26 00:50:15;;;;;;;18.60;11.30;;;2.30;99.90;;;;;;5070196;28;20463;-60
2023/01/26 00:52:42;;;;;;;17.70;8.52;;;2.30;99.90;;;;;;5074951;28;20512;-60
2023/01/26 00:55:11;;;;;;;19.85;10.90;;;2.40;99.90;;;;;;5057259;28;20776;-60
2023/01/26 00:57:38;;;;;;;18.50;9.48;;;2.50;99.90;;;;;;5056020;28;20522;-60
2023/01/26 01:00:07;;;;;;;21.13;10.80;;;2.40;99.90;;;;;;5055148;28;20774;-60
2023/01/26 01:02:35;;;;;;;17.85;9.75;;;2.40;99.90;;;;;;5068607;28;20419;-59
2023/01/26 01:05:02;;;;;;;16.77;9.02;;;2.50;99.90;;;;;;5071552;28;20446;-60
2023/01/26 01:07:29;;;;;;;18.33;9.88;;;2.40;99.90;;;;;;5072991;28;20481;-59
2023/01/26 01:09:56;;;;;;;19.60;10.90;;;2.20;99.90;;;;;;5057620;28;20940;-60
2023/01/26 01:12:25;;;;;;;18.80;9.50;;;2.20;99.90;;;;;;5064337;28;20499;-60
2023/01/26 01:14:52;;;;;;;16.73;8.97;;;2.10;99.90;;;;;;5076024;28;20462;-60
2023/01/26 01:17:19;;;;;;;17.92;9.20;;;1.90;99.90;;;;;;5074448;28;20918;-60
2023/01/26 01:19:47;;;;;;;21.55;11.57;;;1.90;99.90;;;;;;5073780;28;20518;-60
2023/01/26 01:22:14;;;;;;;19.60;9.55;;;2.10;99.90;;;;;;5076410;28;20411;-60
2023/01/26 01:24:41;;;;;;;20.35;11.27;;;2.20;99.90;;;;;;5075225;28;20807;-59
2023/01/26 01:27:08;;;;;;;19.10;11.00;;;2.40;99.90;;;;;;5074414;28;20622;-60
2023/01/26 01:29:37;;;;;;;19.85;10.75;;;2.20;99.90;;;;;;5076324;28;20510;-60
2023/01/26 01:32:05;;;;;;;18.80;11.00;;;2.20;99.90;;;;;;5076328;28;20521;-60
2023/01/26 01:34:32;;;;;;;19.10;9.85;;;2.40;99.90;;;;;;5075545;28;20519;-59
2023/01/26 01:36:59;;;;;;;17.90;10.15;;;2.50;99.90;;;;;;5075730;28;20439;-60
2023/01/26 01:39:26;;;;;;;17.20;9.40;;;2.70;99.90;;;;;;5076132;28;20419;-60
2023/01/26 01:41:53;;;;;;;16.33;8.27;;;2.50;99.90;;;;;;5076261;28;20584;-60
2023/01/26 01:44:23;;;;;;;16.27;9.25;;;2.50;99.90;;;;;;5075084;28;20661;-60
2023/01/26 01:46:55;;;;;;;14.13;8.10;;;2.50;99.90;;;;;;5074736;28;20428;-60
2023/01/26 01:49:26;;;;;;;17.13;9.20;;;2.50;99.90;;;;;;5076415;28;20810;-60
2023/01/26 01:51:57;;;;;;;16.83;9.35;;;2.40;99.90;;;;;;5076054;28;20515;-60
2023/01/26 01:54:29;;;;;;;16.75;8.80;;;2.20;99.90;;;;;;5075924;28;20511;-60
2023/01/26 01:57:02;;;;;;;20.65;9.80;;;2.20;99.90;;;;;;5076195;28;20485;-60
2023/01/26 01:59:31;;;;;;;14.97;8.00;;;2.30;99.90;;;;;;5075604;28;20514;-60
2023/01/26 02:02:00;;;;;;;17.10;9.73;;;2.10;99.90;;;;;;5075557;28;20462;-60
2023/01/26 02:04:27;;;;;;;17.53;9.07;;;2.00;99.90;;;;;;5075660;28;20503;-61
2023/01/26 02:06:58;;;;;;;15.25;8.60;;;2.10;99.90;;;;;;5076006;28;20459;-60
2023/01/26 02:12:18;;;;;;;15.57;8.00;;;2.20;99.90;;;;;;5075545;28;20913;-60
2023/01/26 02:14:46;;;;;;;13.82;8.05;;;2.20;99.90;;;;;;5075411;28;20454;-60
2023/01/26 02:17:14;;;;;;;14.98;7.40;;;2.30;99.90;;;;;;5075108;28;20487;-60
2023/01/26 02:19:51;;;;;;;17.55;9.05;;;2.30;99.90;;;;;;5075543;28;20498;-60
2023/01/26 02:22:32;;;;;;;16.83;8.85;;;2.30;99.90;;;;;;5075324;28;20506;-60
2023/01/26 02:25:07;;;;;;;13.82;7.60;;;2.30;99.90;;;;;;5075534;28;20416;-60
2023/01/26 02:27:36;;;;;;;16.52;7.78;;;2.30;99.90;;;;;;5075005;28;20469;-60
2023/01/26 02:30:06;;;;;;;15.20;7.97;;;2.40;99.90;;;;;;5075167;28;20491;-60
2023/01/26 02:32:33;;;;;;;16.70;8.82;;;2.50;99.90;;;;;;5075077;28;20469;-60
2023/01/26 02:35:00;;;;;;;16.15;7.97;;;2.60;99.90;;;;;;5074745;28;20411;-59
2023/01/26 02:37:27;;;;;;;14.93;7.22;;;2.60;99.90;;;;;;5074591;28;20423;-60
2023/01/26 02:40:01;;;;;;;16.13;8.20;;;2.50;99.90;;;;;;5075086;28;20518;-60
2023/01/26 02:42:40;;;;;;;15.95;8.00;;;2.50;99.90;;;;;;5075227;28;20783;-60
2023/01/26 02:45:12;;;;;;;14.43;6.60;;;2.50;99.90;;;;;;5075064;28;20786;-60
2023/01/26 02:47:40;;;;;;;16.35;6.93;;;2.30;99.90;;;;;;5074379;28;20423;-59
2023/01/26 02:50:07;;;;;;;13.65;6.88;;;2.30;99.90;;;;;;5074627;28;20419;-60
2023/01/26 02:52:34;;;;;;;12.83;6.60;;;2.30;99.90;;;;;;5075265;28;20469;-60
2023/01/26 02:57:46;;;;;;;13.57;6.30;;;2.40;99.90;;;;;;5074294;28;20398;-60
2023/01/26 03:00:18;;;;;;;15.50;7.90;;;2.40;99.90;;;;;;5074560;28;20432;-60
2023/01/26 03:02:46;;;;;;;15.75;7.35;;;2.50;99.90;;;;;;5074421;28;20451;-61
2023/01/26 03:05:14;;;;;;;11.63;7.10;;;2.50;99.90;;;;;;5074884;28;20510;-61
2023/01/26 03:07:41;;;;;;;16.15;7.90;;;2.20;99.90;;;;;;5074492;28;20455;-60
2023/01/26 03:10:10;;;;;;;13.82;6.90;;;2.10;99.90;;;;;;5073284;28;20523;-60
2023/01/26 03:12:37;;;;;;;14.23;6.40;;;2.00;99.90;;;;;;5073918;28;20447;-60
2023/01/26 03:27:25;;;;;;;14.18;6.38;;;2.00;99.90;;;;;;5072993;28;20711;-60
2023/01/26 03:28:55;;;;;;;11.10;5.90;;;2.30;99.90;;;;;;5073099;28;21056;-60
2023/01/26 03:31:22;;;;;;;10.68;5.38;;;2.30;99.90;;;;;;5077324;28;20522;-61
2023/01/26 03:33:50;;;;;;;11.15;4.53;;;2.40;99.90;;;;;;5077608;28;20850;-61
2023/01/26 03:36:18;;;;;;;9.80;4.22;;;2.40;99.90;;;;;;5077837;28;20917;-60
2023/01/26 03:38:45;;;;;;;9.37;3.70;;;2.50;99.90;;;;;;5076679;28;20439;-60
2023/01/26 03:57:44;;;;;;;8.30;4.57;;;2.40;99.90;;;;;;5076363;28;20422;-61
2023/01/26 04:00:13;;;;;;;10.15;4.72;;;2.20;99.90;;;;;;5076644;28;20489;-60
2023/01/26 04:08:21;;;;;;;11.63;5.67;;;1.90;99.90;;;;;;5077558;28;20422;-59
2023/01/26 04:10:50;;;;;;;11.00;5.10;;;2.10;99.90;;;;;;5077881;28;20436;-60
2023/01/26 04:21:32;;;;;;;13.32;5.40;;;2.50;99.90;;;;;;5077291;28;20449;-60
2023/01/26 04:24:01;;;;;;;11.07;4.88;;;2.60;99.90;;;;;;5077720;28;20415;-60
2023/01/26 04:26:33;;;;;;;10.10;4.10;;;2.60;99.90;;;;;;5077420;28;20854;-59
2023/01/26 04:29:02;;;;;;;10.45;4.60;;;2.60;99.90;;;;;;5077524;28;20420;-59
2023/01/26 04:31:29;;;;;;;10.85;4.60;;;2.50;99.90;;;;;;5077323;28;20432;-60
2023/01/26 04:33:56;;;;;;;10.88;5.40;;;2.50;99.90;;;;;;5076601;28;20491;-60
2023/01/26 04:36:23;;;;;;;9.77;4.32;;;2.60;99.90;;;;;;5077427;28;20874;-60
2023/01/26 04:38:52;;;;;;;12.70;5.80;;;2.70;99.90;;;;;;5076148;28;20515;-59
2023/01/26 04:41:19;;;;;;;10.43;4.80;;;2.70;99.90;;;;;;5076952;28;20470;-60
2023/01/26 04:43:47;;;;;;;9.75;4.78;;;2.70;99.90;;;;;;5077292;28;20423;-59
2023/01/26 04:46:14;;;;;;;7.45;3.80;;;2.60;99.90;;;;;;5076735;28;20878;-59
2023/01/26 04:48:41;;;;;;;8.98;4.70;;;2.50;99.90;;;;;;5077377;28;20498;-59
2023/01/26 04:51:13;;;;;;;10.60;4.35;;;2.60;99.90;;;;;;5076973;28;20548;-59
2023/01/26 04:53:40;;;;;;;11.10;4.82;;;2.40;99.90;;;;;;5076911;28;20494;-59
2023/01/26 04:56:17;;;;;;;11.88;4.75;;;2.10;99.90;;;;;;5077354;28;21064;-59
2023/01/26 04:58:45;;;;;;;8.48;3.17;;;1.80;99.90;;;;;;5076740;28;20791;-59
2023/01/26 05:01:12;;;;;;;8.25;3.45;;;1.80;99.90;;;;;;5077130;28;20461;-59
2023/01/26 05:03:39;;;;;;;9.82;3.95;;;1.90;99.90;;;;;;5076705;28;20798;-59
2023/01/26 05:06:07;;;;;;;7.18;3.67;;;2.10;99.90;;;;;;5076836;28;20750;-59
2023/01/26 05:08:34;;;;;;;8.77;3.80;;;2.20;99.90;;;;;;5076935;28;20796;-59
2023/01/26 05:11:01;;;;;;;7.53;3.70;;;2.20;99.90;;;;;;5077039;28;20514;-58
2023/01/26 05:13:30;;;;;;;9.50;4.10;;;2.30;99.90;;;;;;5076953;28;20853;-59
2023/01/26 05:15:57;;;;;;;12.00;4.33;;;2.10;99.90;;;;;;5076335;28;20910;-61
2023/01/26 05:18:24;;;;;;;8.70;4.80;;;2.10;99.90;;;;;;5075991;28;20510;-59
2023/01/26 05:20:51;;;;;;;10.07;4.20;;;2.30;99.90;;;;;;5074949;28;20516;-59
2023/01/26 05:23:18;;;;;;;9.18;4.35;;;2.40;99.90;;;;;;5075058;28;20420;-60
2023/01/26 05:25:46;;;;;;;10.70;4.50;;;2.30;99.90;;;;;;5075010;28;20538;-61
2023/01/26 05:28:13;;;;;;;8.60;3.93;;;2.30;99.90;;;;;;5075918;28;20810;-60
2023/01/26 05:30:42;;;;;;;9.90;5.05;;;2.30;99.90;;;;;;5075692;28;20518;-59
2023/01/26 05:33:11;;;;;;;7.57;3.35;;;2.20;99.90;;;;;;5075438;28;20462;-59
2023/01/26 05:35:38;;;;;;;7.70;4.00;;;2.20;99.90;;;;;;5075762;28;20534;-59
2023/01/26 05:38:05;;;;;;;8.75;3.83;;;2.20;99.90;;;;;;5075833;28;20902;-60
2023/01/26 05:40:32;;;;;;;8.43;3.53;;;2.10;99.90;;;;;;5076159;28;20727;-60
2023/01/26 05:43:00;;;;;;;8.60;3.67;;;2.10;99.90;;;;;;5076106;28;20507;-60
2023/01/26 05:45:27;;;;;;;8.83;3.43;;;2.10;99.90;;;;;;5075688;28;20521;-59
2023/01/26 05:47:56;;;;;;;7.45;3.90;;;1.90;99.90;;;;;;5076429;28;20510;-59
2023/01/26 05:50:23;;;;;;;8.63;4.00;;;1.90;99.90;;;;;;5075904;28;20506;-59
2023/01/26 05:52:50;;;;;;;5.65;2.88;;;1.90;99.90;;;;;;5074689;28;20514;-59
2023/01/26 05:55:17;;;;;;;9.07;4.30;;;2.00;99.90;;;;;;5075107;28;20424;-60
2023/01/26 05:57:45;;;;;;;8.07;3.28;;;2.00;99.90;;;;;;5075366;28;20514;-60
2023/01/26 06:00:14;;;;;;;6.50;3.30;;;2.10;99.90;;;;;;5075270;28;20808;-59
2023/01/26 06:02:41;;;;;;;7.57;3.20;;;2.10;99.90;;;;;;5074201;28;20419;-59
2023/01/26 06:05:10;;;;;;;8.25;2.95;;;2.00;99.90;;;;;;5072029;28;20530;-59
2023/01/26 06:07:37;;;;;;;6.30;3.00;;;2.00;99.90;;;;;;5074623;28;20514;-59
2023/01/26 06:10:05;;;;;;;5.68;2.70;;;2.00;99.90;;;;;;5073182;28;20514;-59
2023/01/26 06:12:34;;;;;;;7.47;2.63;;;1.70;99.90;;;;;;5073806;28;20429;-59
2023/01/26 06:15:01;;;;;;;7.03;3.03;;;1.70;99.90;;;;;;5074367;28;20849;-59
2023/01/26 06:17:29;;;;;;;6.55;3.10;;;1.70;99.90;;;;;;5074075;28;20431;-59
2023/01/26 06:19:56;;;;;;;8.18;3.75;;;1.60;99.90;;;;;;5073562;28;20510;-59
2023/01/26 06:22:25;;;;;;;8.93;3.70;;;1.60;99.90;;;;;;5073378;28;20791;-59
2023/01/26 06:24:52;;;;;;;7.90;3.20;;;1.80;99.90;;;;;;5073933;28;20489;-59
2023/01/26 06:27:19;;;;;;;5.28;2.75;;;1.90;99.90;;;;;;5074172;28;20419;-59
2023/01/26 06:29:47;;;;;;;8.18;4.00;;;1.90;99.90;;;;;;5072490;28;20408;-59
2023/01/26 06:32:15;;;;;;;8.88;4.30;;;2.00;99.90;;;;;;5072138;28;20861;-59
2023/01/26 06:34:42;;;;;;;7.28;3.55;;;1.80;99.90;;;;;;5071780;28;20510;-59
2023/01/26 06:37:09;;;;;;;9.43;4.60;;;1.80;99.90;;;;;;5073097;28;20809;-59
2023/01/26 06:39:39;;;;;;;8.10;4.43;;;1.70;99.90;;;;;;5073102;28;20514;-60
2023/01/26 06:42:08;;;;;;;7.65;3.33;;;1.50;99.90;;;;;;5074092;28;20439;-60
2023/01/26 06:44:35;;;;;;;7.68;3.65;;;1.80;99.90;;;;;;5073092;28;20470;-60
2023/01/26 06:47:02;;;;;;;7.47;3.45;;;1.90;99.90;;;;;;5072681;28;20423;-59
2023/01/26 06:49:29;;;;;;;8.48;4.40;;;2.00;99.90;;;;;;5072341;28;20514;-60
2023/01/26 06:52:00;;;;;;;8.95;3.97;;;2.10;99.90;;;;;;5071620;28;20447;-59
2023/01/26 06:54:27;;;;;;;8.85;3.75;;;2.00;99.90;;;;;;5070931;28;20455;-60
2023/01/26 06:56:56;;;;;;;7.38;3.90;;;2.00;99.90;;;;;;5073342;28;20433;-60
2023/01/26 06:59:23;;;;;;;7.57;3.60;;;2.10;99.90;;;;;;5072059;28;20938;-59
2023/01/26 07:01:50;;;;;;;8.30;3.85;;;2.00;99.90;;;;;;5067188;28;20493;-59
2023/01/26 07:04:18;;;;;;;7.78;3.10;;;1.80;99.90;;;;;;5069453;28;20546;-59
2023/01/26 07:06:45;;;;;;;8.80;3.90;;;1.80;99.90;;;;;;5070676;28;20427;-59
2023/01/26 07:09:12;;;;;;;10.35;4.80;;;1.70;99.90;;;;;;5071386;28;20510;-60
2023/01/26 07:11:40;;;;;;;8.80;4.13;;;1.70;99.90;;;;;;5063731;28;20795;-59
2023/01/26 07:14:08;;;;;;;7.22;3.55;;;1.70;99.90;;;;;;5069339;28;20441;-59
2023/01/26 07:16:36;;;;;;;7.63;3.47;;;1.70;99.90;;;;;;5068982;28;20462;-59
2023/01/26 07:19:03;;;;;;;7.68;3.47;;;1.80;99.90;;;;;;5072305;28;20498;-59
2023/01/26 07:21:30;;;;;;;7.72;4.10;;;1.90;99.90;;;;;;5070733;28;20490;-59
2023/01/26 07:23:57;;;;;;;7.57;3.53;;;2.00;99.90;;;;;;5070834;28;20415;-59
2023/01/26 07:26:24;;;;;;;5.95;2.80;;;2.00;99.90;;;;;;5072056;28;20537;-59
2023/01/26 07:28:52;;;;;;;5.72;2.60;;;2.00;99.90;;;;;;5073902;28;20497;-59
2023/01/26 07:31:20;;;;;;;6.82;2.60;;;1.90;99.90;;;;;;5071305;28;21124;-59
2023/01/26 07:33:48;;;;;;;5.43;2.67;;;1.80;99.90;;;;;;5072022;28;20511;-59
2023/01/26 07:36:15;;;;;;;7.57;3.90;;;1.60;99.90;;;;;;5071041;28;20470;-58
2023/01/26 07:38:42;;;;;;;7.20;3.60;;;1.50;99.90;;;;;;5071607;28;20515;-58
2023/01/26 07:41:12;;;;;;;9.73;5.22;;;1.80;99.90;;;;;;5069463;28;20941;-61
2023/01/26 07:43:40;;;;;;;8.50;4.25;;;1.90;99.90;;;;;;5072239;28;20426;-60
2023/01/26 07:46:09;;;;;;;8.13;3.60;;;1.90;99.90;;;;;;5069811;28;20560;-60
2023/01/26 07:48:39;;;;;;;9.48;4.38;;;1.90;99.90;;;;;;5071374;28;20514;-59
2023/01/26 07:51:08;;;;;;;10.05;4.50;;;1.80;99.90;;;;;;5071254;28;20910;-59
2023/01/26 07:53:38;;;;;;;8.77;4.10;;;1.80;99.90;;;;;;5071228;28;20459;-59
2023/01/26 07:56:11;;;;;;;8.40;4.30;;;1.60;99.90;;;;;;5071274;28;20451;-59
2023/01/26 07:58:43;;;;;;;8.65;3.63;;;1.60;99.90;;;;;;5070464;28;20493;-59
2023/01/26 08:01:12;;;;;;;6.18;2.63;;;1.60;99.90;;;;;;5071613;28;20505;-60
2023/01/26 08:03:44;;;;;;;7.85;3.63;;;1.80;99.90;;;;;;5071872;28;20511;-59
2023/01/26 08:06:12;;;;;;;9.27;3.70;;;1.70;99.90;;;;;;5070509;28;20751;-59
2023/01/26 08:08:39;;;;;;;8.38;4.05;;;1.70;99.90;;;;;;5070020;28;20463;-59
2023/01/26 08:11:08;;;;;;;7.07;2.85;;;1.70;99.90;;;;;;5069690;28;20442;-60
2023/01/26 08:13:35;;;;;;;7.57;3.10;;;1.70;99.90;;;;;;5069669;28;20514;-59
2023/01/26 08:16:03;;;;;;;5.70;2.47;;;1.70;99.90;;;;;;5066236;28;20498;-59
2023/01/26 08:18:31;;;;;;;5.03;2.20;;;1.70;99.90;;;;;;5075415;28;20514;-59
2023/01/26 08:21:00;;;;;;;4.30;2.20;;;1.80;99.90;;;;;;5074635;28;20435;-59
2023/01/26 08:23:28;;;;;;;4.40;2.20;;;1.70;99.90;;;;;;5074736;28;20483;-58
2023/01/26 08:25:55;;;;;;;4.90;2.10;;;1.70;99.90;;;;;;5067950;28;20815;-59
2023/01/26 08:28:23;;;;;;;6.22;2.70;;;1.80;99.90;;;;;;5073784;28;20437;-59
2023/01/26 08:30:50;;;;;;;5.78;2.40;;;1.60;99.90;;;;;;5074807;28;20519;-59
2023/01/26 08:33:17;;;;;;;5.43;2.70;;;1.60;99.90;;;;;;5072100;28;20973;-59
2023/01/26 08:35:44;;;;;;;6.57;3.40;;;1.50;99.90;;;;;;5073857;28;20497;-59
2023/01/26 08:38:13;;;;;;;5.85;2.80;;;1.60;99.90;;;;;;5071944;28;20481;-59
2023/01/26 08:40:40;;;;;;;6.70;3.00;;;1.50;99.90;;;;;;5074799;28;20534;-59
2023/01/26 08:43:08;;;;;;;5.35;2.50;;;1.50;99.90;;;;;;5071852;28;20439;-59
2023/01/26 08:45:35;;;;;;;7.87;3.37;;;1.50;99.90;;;;;;5067045;28;20520;-59
2023/01/26 08:48:02;;;;;;;6.30;2.50;;;1.50;99.90;;;;;;5077595;28;20851;-59
2023/01/26 08:50:29;;;;;;;8.07;3.20;;;1.50;99.90;;;;;;5093486;28;20500;-58
2023/01/26 08:52:57;;;;;;;6.35;3.20;;;1.40;99.90;;;;;;5076689;28;20519;-59
2023/01/26 08:55:27;;;;;;;7.40;3.70;;;1.40;99.90;;;;;;5070683;28;20431;-59
2023/01/26 08:57:55;;;;;;;7.32;3.28;;;1.60;99.90;;;;;;5067218;28;20445;-59
2023/01/26 09:00:23;;;;;;;6.63;3.45;;;1.60;99.90;;;;;;5072571;28;20442;-59
2023/01/26 09:02:51;;;;;;;6.43;3.20;;;1.70;99.90;;;;;;5071586;28;20586;-60
2023/01/26 09:05:18;;;;;;;6.43;2.50;;;1.70;99.90;;;;;;5068123;28;20431;-59
2023/01/26 09:07:45;;;;;;;7.75;3.40;;;1.60;99.90;;;;;;5070555;28;20475;-59
2023/01/26 09:10:13;;;;;;;7.40;2.80;;;1.60;99.90;;;;;;5063830;28;20506;-59
2023/01/26 09:12:42;;;;;;;7.13;2.90;;;1.60;99.90;;;;;;5073589;28;20723;-59
2023/01/26 09:15:09;;;;;;;8.23;3.47;;;1.80;99.90;;;;;;5072987;28;20854;-59
2023/01/26 09:17:37;;;;;;;7.32;3.30;;;1.90;99.90;;;;;;5072942;28;20430;-59
2023/01/26 09:20:05;;;;;;;6.65;2.80;;;2.00;99.90;;;;;;5073678;28;20432;-60
2023/01/26 09:22:33;;;;;;;6.30;2.40;;;1.80;99.90;;;;;;5072978;28;20739;-60
2023/01/26 09:25:00;;;;;;;7.78;3.65;;;1.60;99.90;;;;;;5073357;28;20510;-59
2023/01/26 09:27:27;;;;;;;5.05;3.05;;;1.70;99.90;;;;;;5073655;28;20428;-59
2023/01/26 09:29:56;;;;;;;6.30;2.50;;;1.80;99.90;;;;;;5071513;28;20494;-59
2023/01/26 09:32:23;;;;;;;5.32;2.60;;;1.80;99.90;;;;;;5072962;28;20514;-60
2023/01/26 09:34:51;;;;;;;6.87;3.03;;;1.90;99.90;;;;;;5071115;28;20503;-59
2023/01/26 09:37:18;;;;;;;5.57;2.47;;;2.00;99.90;;;;;;5073962;28;20510;-60
2023/01/26 09:39:45;;;;;;;6.33;1.80;;;2.00;99.90;;;;;;5069585;28;20436;-60
2023/01/26 09:42:29;;;;;;;6.07;2.40;;;2.10;99.90;;;;;;5065260;28;20465;-60
2023/01/26 09:45:12;;;;;;;6.43;2.60;;;2.20;99.90;;;;;;5068660;28;20442;-59
2023/01/26 09:47:56;;;;;;;6.38;2.40;;;2.20;99.90;;;;;;5073390;28;20893;-59
2023/01/26 09:50:28;;;;;;;6.30;2.95;;;2.20;99.90;;;;;;5072880;28;20419;-58
2023/01/26 09:53:00;;;;;;;7.75;3.15;;;2.10;99.90;;;;;;5063395;28;20506;-59
2023/01/26 09:55:29;;;;;;;9.10;4.35;;;1.90;99.90;;;;;;5063179;28;21005;-59
2023/01/26 09:58:00;;;;;;;6.90;3.05;;;1.80;99.90;;;;;;5064061;28;20475;-59
2023/01/26 10:00:32;;;;;;;6.45;3.08;;;1.80;99.90;;;;;;5059944;28;20826;-59
2023/01/26 10:03:13;;;;;;;7.38;2.90;;;1.80;99.90;;;;;;5068640;28;20925;-59
2023/01/26 10:05:47;;;;;;;6.07;2.80;;;1.90;99.90;;;;;;5065192;28;20528;-58
2023/01/26 10:08:17;;;;;;;5.20;2.22;;;1.80;99.90;;;;;;5067229;28;20470;-59
2023/01/26 10:10:48;;;;;;;4.47;2.40;;;1.70;99.90;;;;;;5067050;28;20445;-59
2023/01/26 10:13:18;;;;;;;4.68;2.50;;;1.60;99.90;;;;;;5063921;28;20944;-59
2023/01/26 10:15:51;;;;;;;5.45;2.50;;;1.40;99.90;;;;;;5055559;28;20497;-59
2023/01/26 10:18:22;;;;;;;4.70;2.00;;;1.50;99.90;;;;;;5071829;28;20452;-59
2023/01/26 10:20:53;;;;;;;4.13;1.92;;;1.50;99.90;;;;;;5068145;28;20811;-59
2023/01/26 10:23:25;;;;;;;4.40;1.80;;;1.50;99.90;;;;;;5068810;28;20521;-59
2023/01/26 10:25:53;;;;;;;4.10;1.90;;;1.60;99.90;;;;;;5067284;28;20837;-59
2023/01/26 10:28:28;;;;;;;4.07;1.67;;;1.60;99.90;;;;;;5055329;28;20525;-58
2023/01/26 10:30:57;;;;;;;4.75;1.80;;;1.70;99.90;;;;;;5069521;28;20751;-59
2023/01/26 10:33:29;;;;;;;3.00;1.63;;;1.70;99.90;;;;;;5072301;28;20447;-59
2023/01/26 10:35:57;;;;;;;4.95;1.70;;;1.80;99.90;;;;;;5068515;28;20535;-59
2023/01/26 10:38:28;;;;;;;3.70;1.80;;;1.90;99.90;;;;;;5069212;28;20533;-59
2023/01/26 10:40:57;;;;;;;3.15;1.50;;;2.00;99.90;;;;;;5065436;28;20526;-58
2023/01/26 10:43:26;;;;;;;4.13;1.50;;;2.00;99.90;;;;;;5071863;28;20843;-59
2023/01/26 10:45:53;;;;;;;3.35;1.50;;;2.00;99.90;;;;;;5069273;28;20444;-59
2023/01/26 10:48:25;;;;;;;3.15;1.30;;;1.80;99.90;;;;;;5065189;28;20439;-60
2023/01/26 10:50:53;;;;;;;3.70;1.23;;;1.90;99.90;;;;;;5069120;28;20858;-59
2023/01/26 10:53:25;;;;;;;3.85;1.40;;;2.00;99.90;;;;;;5060301;28;20515;-59
2023/01/26 10:56:01;;;;;;;4.63;1.88;;;2.00;99.90;;;;;;5057485;28;20722;-60
2023/01/26 10:58:45;;;;;;;5.45;3.13;;;2.00;99.90;;;;;;5065190;28;20489;-59
2023/01/26 11:01:14;;;;;;;4.40;1.60;;;1.90;99.90;;;;;;5065730;28;20446;-59
2023/01/26 11:04:03;;;;;;;3.47;1.60;;;1.70;99.90;;;;;;5072451;28;20481;-59
2023/01/26 11:06:31;;;;;;;3.03;1.40;;;1.60;99.90;;;;;;5068746;28;20426;-59
2023/01/26 11:09:10;;;;;;;4.47;1.50;;;1.70;99.90;;;;;;5065659;28;20419;-59
2023/01/26 11:11:38;;;;;;;4.10;1.63;;;1.70;99.90;;;;;;5064556;28;20481;-59
2023/01/26 11:14:13;;;;;;;3.70;1.70;;;1.60;99.90;;;;;;5071958;28;20472;-59
2023/01/26 11:16:44;;;;;;;4.15;1.60;;;1.50;99.90;;;;;;5056093;28;20452;-59
2023/01/26 11:19:17;;;;;;;4.78;2.08;;;1.50;99.90;;;;;;5052175;28;21046;-59
2023/01/26 11:21:48;;;;;;;4.60;2.10;;;1.40;99.90;;;;;;5064950;28;20922;-60
2023/01/26 11:24:23;;;;;;;6.05;1.70;;;1.50;99.90;;;;;;5049617;28;20417;-60
2023/01/26 11:27:22;;;;;;;4.20;2.33;;;1.50;99.90;;;;;;5054156;28;20740;-60
2023/01/26 11:30:24;;;;;;;3.83;1.80;;;1.70;99.90;;;;;;5065077;28;20532;-59
2023/01/26 11:32:59;;;;;;;4.60;1.63;;;1.70;99.90;;;;;;5068482;28;20498;-60
2023/01/26 11:35:34;;;;;;;4.30;2.05;;;1.60;99.90;;;;;;5069124;28;20493;-60
2023/01/26 11:38:21;;;;;;;4.40;1.85;;;1.70;99.90;;;;;;5069092;28;21003;-60
2023/01/26 11:40:56;;;;;;;3.70;1.50;;;1.70;99.90;;;;;;5070124;28;20514;-60
2023/01/26 11:43:34;;;;;;;3.90;1.70;;;1.70;99.90;;;;;;5072133;28;20510;-59
2023/01/26 11:46:13;;;;;;;5.20;2.05;;;1.60;99.90;;;;;;5070519;28;20793;-60
2023/01/26 11:48:51;;;;;;;5.63;1.93;;;1.50;99.90;;;;;;5066378;28;20515;-60
2023/01/26 11:51:31;;;;;;;6.20;2.10;;;1.50;99.90;;;;;;5072966;28;20429;-60
2023/01/26 11:54:19;;;;;;;4.82;2.00;;;1.60;99.90;;;;;;5072522;28;20863;-60
2023/01/26 11:56:54;;;;;;;6.32;2.38;;;1.60;99.90;;;;;;5071682;28;20517;-60
2023/01/26 11:59:28;;;;;;;5.85;1.73;;;1.40;99.90;;;;;;5071916;28;20529;-59
2023/01/26 12:02:02;;;;;;;4.82;2.10;;;1.30;99.90;;;;;;5072695;28;20465;-60
2023/01/26 12:04:36;;;;;;;4.70;1.60;;;1.40;99.90;;;;;;5067964;28;20696;-59
2023/01/26 12:07:12;;;;;;;6.30;1.83;;;1.40;99.90;;;;;;5074246;28;20915;-60
2023/01/26 12:09:44;;;;;;;4.30;1.75;;;1.50;99.90;;;;;;5071967;28;20512;-60
2023/01/26 12:12:18;;;;;;;4.13;1.80;;;1.40;99.90;;;;;;5068269;28;20506;-59
2023/01/26 12:14:51;;;;;;;4.47;2.08;;;1.30;99.90;;;;;;5074019;28;20843;-60
2023/01/26 12:17:40;;;;;;;5.25;1.83;;;1.50;99.90;;;;;;5067625;28;20648;-59
2023/01/26 12:20:23;;;;;;;5.57;1.70;;;1.50;99.90;;;;;;5072607;28;20651;-61
2023/01/26 12:22:58;;;;;;;3.40;1.40;;;1.30;99.90;;;;;;5065809;28;20626;-60
2023/01/26 12:25:32;;;;;;;3.33;1.40;;;1.40;99.90;;;;;;5072157;28;20938;-60
2023/01/26 12:28:08;;;;;;;3.73;1.33;;;1.30;99.90;;;;;;5074305;28;20506;-60
2023/01/26 12:30:46;;;;;;;4.00;1.73;;;1.30;99.90;;;;;;5063159;28;20469;-60
2023/01/26 12:33:13;;;;;;;3.35;1.40;;;1.40;99.90;;;;;;5071481;28;21102;-60
2023/01/26 12:36:14;;;;;;;3.92;1.33;;;1.50;99.90;;;;;;5066942;28;20432;-60
2023/01/26 12:38:55;;;;;;;5.43;1.60;;;1.60;99.90;;;;;;5060075;28;20439;-60
2023/01/26 12:41:35;;;;;;;4.00;1.30;;;1.70;99.90;;;;;;5072262;28;20435;-59
2023/01/26 12:44:18;;;;;;;2.75;1.20;;;1.80;99.90;;;;;;5059793;28;20421;-59
2023/01/26 12:46:54;;;;;;;3.55;1.55;;;1.80;99.90;;;;;;5062480;28;20920;-59
2023/01/26 12:49:26;;;;;;;3.83;1.80;;;1.50;99.90;;;;;;5071491;28;20452;-60
2023/01/26 12:51:58;;;;;;;4.25;1.60;;;1.50;99.90;;;;;;5073240;28;20463;-59
2023/01/26 12:54:36;;;;;;;5.68;2.40;;;1.40;99.90;;;;;;5072320;28;20477;-60
2023/01/26 12:57:07;;;;;;;5.50;2.45;;;1.30;99.90;;;;;;5072554;28;20431;-60
2023/01/26 12:59:37;;;;;;;5.38;2.15;;;1.40;99.90;;;;;;5072122;28;20795;-60
2023/01/26 13:02:19;;;;;;;4.95;2.20;;;1.30;99.90;;;;;;5071244;28;20533;-60
2023/01/26 13:04:46;;;;;;;6.20;2.30;;;1.40;99.90;;;;;;5070935;28;20486;-59
2023/01/26 13:07:33;;;;;;;4.28;1.50;;;1.40;99.90;;;;;;5066837;28;20463;-60
2023/01/26 13:10:27;;;;;;;5.07;1.80;;;1.50;99.90;;;;;;5068652;28;20485;-58
2023/01/26 13:12:56;;;;;;;4.28;1.85;;;1.40;99.90;;;;;;5065727;28;20423;-60
2023/01/26 13:15:26;;;;;;;4.22;1.88;;;1.50;99.90;;;;;;5070368;28;20423;-59
2023/01/26 13:17:58;;;;;;;6.28;2.00;;;1.40;99.90;;;;;;5071707;28;20773;-60
2023/01/26 13:20:47;;;;;;;4.00;1.75;;;1.50;99.90;;;;;;5067672;28;20443;-58
2023/01/26 13:23:40;;;;;;;5.45;2.10;;;1.50;99.90;;;;;;5061041;28;20472;-59
2023/01/26 13:26:21;;;;;;;7.13;3.35;;;1.40;99.90;;;;;;5066011;28;20442;-59
2023/01/26 13:28:49;;;;;;;7.40;3.20;;;1.30;99.90;;;;;;5067385;28;21353;-59
2023/01/26 13:31:31;;;;;;;7.85;3.25;;;1.30;99.90;;;;;;5071146;28;20582;-59
2023/01/26 13:34:02;;;;;;;5.40;2.17;;;1.50;99.90;;;;;;5070672;28;20428;-59
2023/01/26 13:36:35;;;;;;;3.58;1.45;;;1.50;99.90;;;;;;5070821;28;20519;-59
2023/01/26 13:39:11;;;;;;;6.22;1.90;;;1.60;99.90;;;;;;5067869;28;20522;-58
2023/01/26 13:41:47;;;;;;;5.38;2.17;;;1.60;99.90;;;;;;5070053;28;20905;-59
2023/01/26 13:44:18;;;;;;;5.10;2.10;;;1.70;99.90;;;;;;5068981;28;20428;-59
2023/01/26 13:46:51;;;;;;;6.05;2.20;;;1.40;99.90;;;;;;5067582;28;20485;-59
2023/01/26 13:49:26;;;;;;;4.20;1.90;;;1.40;99.90;;;;;;5059667;28;20534;-59
2023/01/26 13:51:54;;;;;;;5.38;2.00;;;1.50;99.90;;;;;;5066424;28;20522;-58
2023/01/26 13:54:24;;;;;;;4.63;2.30;;;1.60;99.90;;;;;;5061711;28;20502;-59
2023/01/26 13:57:03;;;;;;;6.00;2.87;;;1.70;99.90;;;;;;5071164;28;20542;-59